Aérodrome :
LOGIN :

S'inscrire | Disclaimer

   EN    FR    IT 

 










Légende :    VFR   VFR Marginal   IFR   IFR Intensif   IFR Très Intensif
Visi : 
Plafond : 
>= 8 km
>= 3000ft
5 à 8 km
1000 à 3000 ft
1500m à 5 km
500 à 1000 ft
800 à 1500m
200 à 500 ft
< 800m
< 200 ft
Symboles :   Orages  Brouillard  Fortes neiges  Fortes précipitations  Vent > 20 kt
SIGMETs :   Divers  Orages  Givrage  Turbulence  Onde Orograph.  Cendres Volcan.






- Altitude de l'aérodrome : 19 ft
- Code IATA : BEB


EGPL - Benbecula

DERNIER METAR :
  • 200650Z AUTO 22023KT 9999 OVC012/// 10/07 Q1036

METARs EXPIRÉS :
  • 200620Z AUTO 22023KT 9999 OVC011/// 09/08 Q1036
  • 200550Z AUTO 22028KT 9999 OVC011/// 10/07 Q1036
  • 200520Z AUTO 22031KT 9999 OVC010/// 10/07 Q1036
  • 200450Z AUTO 22021KT 9999 OVC009/// 10/08 Q1036
  • 200420Z AUTO 22027KT 9999 OVC009/// 10/08 Q1036

TAF TAF EGPL
Valide du 20 à 06h jusqu'au 20 à 15h UTC


200457Z 2006/2015 22022KT 9999 BKN014
TEMPO 2006/2015 23025G37KT BKN008
PROB30
TEMPO 2006/2015 6000 -DZ
ATIS : +44 1870 604 818



MET'MAP, la Météo Aéronautique d'un coup d'oeil ! - Copyright ORBIFLY Décembre 2007 - Disclaimer

ORBIFLY MET'MAP TEAM :

Programmation & Développement : Alexandra Zaïnal
Sur une idée originale de : Baudouin d'Aumeries
Assistance à la programmation : Marc-Olivier Méhu
Soutien technique & logistique : Manuel Goepfert

Contact : metmap@orbifly.com




SOURCES & CREDITS :

   NOAA